sensor_id;sensor_type;location;lat;lon;timestamp;temperature;humidity
4934;DHT22;2482;49.154;8.254;2023-03-11T00:00:54;3.60;99.90
4934;DHT22;2482;49.154;8.254;2023-03-11T00:03:22;3.50;99.90
4934;DHT22;2482;49.154;8.254;2023-03-11T00:05:50;3.50;99.90
4934;DHT22;2482;49.154;8.254;2023-03-11T00:08:21;3.60;99.90
4934;DHT22;2482;49.154;8.254;2023-03-11T00:10:57;3.40;99.90
4934;DHT22;2482;49.154;8.254;2023-03-11T00:13:27;3.30;99.90
4934;DHT22;2482;49.154;8.254;2023-03-11T00:15:55;3.30;99.90
4934;DHT22;2482;49.154;8.254;2023-03-11T00:18:23;3.30;99.90
4934;DHT22;2482;49.154;8.254;2023-03-11T00:20:54;3.50;99.90
4934;DHT22;2482;49.154;8.254;2023-03-11T00:23:22;3.40;99.90
4934;DHT22;2482;49.154;8.254;2023-03-11T00:25:49;3.40;99.90
4934;DHT22;2482;49.154;8.254;2023-03-11T00:28:17;3.40;99.90
4934;DHT22;2482;49.154;8.254;2023-03-11T00:30:45;3.30;99.90
4934;DHT22;2482;49.154;8.254;2023-03-11T00:33:13;3.20;99.90
4934;DHT22;2482;49.154;8.254;2023-03-11T00:35:42;3.30;99.90
4934;DHT22;2482;49.154;8.254;2023-03-11T00:38:12;3.30;99.90
4934;DHT22;2482;49.154;8.254;2023-03-11T00:40:41;3.40;99.90
4934;DHT22;2482;49.154;8.254;2023-03-11T00:43:09;3.40;99.90
4934;DHT22;2482;49.154;8.254;2023-03-11T00:45:36;3.40;99.90
4934;DHT22;2482;49.154;8.254;2023-03-11T00:48:04;3.30;99.90
4934;DHT22;2482;49.154;8.254;2023-03-11T00:50:34;3.30;99.90
4934;DHT22;2482;49.154;8.254;2023-03-11T00:53:03;3.20;99.90
4934;DHT22;2482;49.154;8.254;2023-03-11T00:55:33;2.90;99.90
4934;DHT22;2482;49.154;8.254;2023-03-11T00:58:05;2.70;99.90
4934;DHT22;2482;49.154;8.254;2023-03-11T01:00:33;2.70;99.90
4934;DHT22;2482;49.154;8.254;2023-03-11T01:03:00;2.70;99.90
4934;DHT22;2482;49.154;8.254;2023-03-11T01:05:31;2.70;99.90
4934;DHT22;2482;49.154;8.254;2023-03-11T01:07:59;2.70;99.90
4934;DHT22;2482;49.154;8.254;2023-03-11T01:10:29;2.70;99.90
4934;DHT22;2482;49.154;8.254;2023-03-11T01:12:56;2.60;99.90
4934;DHT22;2482;49.154;8.254;2023-03-11T01:15:30;2.60;99.90
4934;DHT22;2482;49.154;8.254;2023-03-11T01:17:59;2.60;99.90
4934;DHT22;2482;49.154;8.254;2023-03-11T01:20:26;2.70;99.90
4934;DHT22;2482;49.154;8.254;2023-03-11T01:22:53;2.70;99.90
4934;DHT22;2482;49.154;8.254;2023-03-11T01:25:22;2.60;99.90
4934;DHT22;2482;49.154;8.254;2023-03-11T01:27:49;2.60;99.90
4934;DHT22;2482;49.154;8.254;2023-03-11T01:30:19;2.50;99.90
4934;DHT22;2482;49.154;8.254;2023-03-11T01:32:47;2.50;99.90
4934;DHT22;2482;49.154;8.254;2023-03-11T01:35:16;2.50;99.90
4934;DHT22;2482;49.154;8.254;2023-03-11T01:37:44;2.50;99.90
4934;DHT22;2482;49.154;8.254;2023-03-11T01:40:19;2.40;99.90
4934;DHT22;2482;49.154;8.254;2023-03-11T01:42:50;2.30;99.90
4934;DHT22;2482;49.154;8.254;2023-03-11T01:47:56;2.20;99.90
4934;DHT22;2482;49.154;8.254;2023-03-11T01:50:24;2.20;99.90
4934;DHT22;2482;49.154;8.254;2023-03-11T01:52:53;2.30;99.90
4934;DHT22;2482;49.154;8.254;2023-03-11T01:55:20;2.10;99.90
4934;DHT22;2482;49.154;8.254;2023-03-11T01:57:48;2.10;99.90
4934;DHT22;2482;49.154;8.254;2023-03-11T02:00:15;2.20;99.90
4934;DHT22;2482;49.154;8.254;2023-03-11T02:02:53;2.00;99.90
4934;DHT22;2482;49.154;8.254;2023-03-11T02:05:22;2.00;99.90
4934;DHT22;2482;49.154;8.254;2023-03-11T02:07:50;1.90;99.90
4934;DHT22;2482;49.154;8.254;2023-03-11T02:10:19;1.90;99.90
4934;DHT22;2482;49.154;8.254;2023-03-11T02:12:48;1.90;99.90
4934;DHT22;2482;49.154;8.254;2023-03-11T02:15:15;1.90;99.90
4934;DHT22;2482;49.154;8.254;2023-03-11T02:17:42;1.90;99.90
4934;DHT22;2482;49.154;8.254;2023-03-11T02:20:41;1.80;99.90
4934;DHT22;2482;49.154;8.254;2023-03-11T02:23:14;1.80;99.90
4934;DHT22;2482;49.154;8.254;2023-03-11T02:28:15;1.70;99.90
4934;DHT22;2482;49.154;8.254;2023-03-11T02:30:43;1.80;99.90
4934;DHT22;2482;49.154;8.254;2023-03-11T02:33:12;1.80;99.90
4934;DHT22;2482;49.154;8.254;2023-03-11T02:35:40;1.80;99.90
4934;DHT22;2482;49.154;8.254;2023-03-11T02:38:07;1.80;99.90
4934;DHT22;2482;49.154;8.254;2023-03-11T02:40:48;1.70;99.90
4934;DHT22;2482;49.154;8.254;2023-03-11T02:43:22;1.70;99.90
4934;DHT22;2482;49.154;8.254;2023-03-11T02:45:59;1.70;99.90
4934;DHT22;2482;49.154;8.254;2023-03-11T02:48:28;1.70;99.90
4934;DHT22;2482;49.154;8.254;2023-03-11T02:50:55;1.70;99.90
4934;DHT22;2482;49.154;8.254;2023-03-11T02:53:24;1.60;99.90
4934;DHT22;2482;49.154;8.254;2023-03-11T02:55:52;1.60;99.90
4934;DHT22;2482;49.154;8.254;2023-03-11T02:58:19;1.50;99.90
4934;DHT22;2482;49.154;8.254;2023-03-11T03:00:46;1.50;99.90
4934;DHT22;2482;49.154;8.254;2023-03-11T03:03:13;1.50;99.90
4934;DHT22;2482;49.154;8.254;2023-03-11T03:05:40;1.40;99.90
4934;DHT22;2482;49.154;8.254;2023-03-11T03:08:07;1.30;99.90
4934;DHT22;2482;49.154;8.254;2023-03-11T03:10:34;1.40;99.90
4934;DHT22;2482;49.154;8.254;2023-03-11T03:13:01;1.40;99.90
4934;DHT22;2482;49.154;8.254;2023-03-11T03:15:28;1.40;99.90
4934;DHT22;2482;49.154;8.254;2023-03-11T03:17:55;1.40;99.90
4934;DHT22;2482;49.154;8.254;2023-03-11T03:20:22;1.40;99.90
4934;DHT22;2482;49.154;8.254;2023-03-11T03:22:50;1.40;99.90
4934;DHT22;2482;49.154;8.254;2023-03-11T03:25:17;1.40;99.90
4934;DHT22;2482;49.154;8.254;2023-03-11T03:27:44;1.40;99.90
4934;DHT22;2482;49.154;8.254;2023-03-11T03:30:11;1.40;99.90
4934;DHT22;2482;49.154;8.254;2023-03-11T03:32:38;1.40;99.90
4934;DHT22;2482;49.154;8.254;2023-03-11T03:35:06;1.40;99.90
4934;DHT22;2482;49.154;8.254;2023-03-11T03:37:35;1.40;99.90
4934;DHT22;2482;49.154;8.254;2023-03-11T03:40:04;1.30;99.90
4934;DHT22;2482;49.154;8.254;2023-03-11T03:42:34;1.30;99.90
4934;DHT22;2482;49.154;8.254;2023-03-11T03:45:03;1.20;99.90
4934;DHT22;2482;49.154;8.254;2023-03-11T03:47:33;1.20;99.90
4934;DHT22;2482;49.154;8.254;2023-03-11T03:50:05;1.20;99.90
4934;DHT22;2482;49.154;8.254;2023-03-11T03:52:35;1.20;99.90
4934;DHT22;2482;49.154;8.254;2023-03-11T03:55:03;1.10;99.90
4934;DHT22;2482;49.154;8.254;2023-03-11T03:57:32;1.10;99.90
4934;DHT22;2482;49.154;8.254;2023-03-11T03:59:59;1.10;99.90
4934;DHT22;2482;49.154;8.254;2023-03-11T04:02:26;1.10;99.90
4934;DHT22;2482;49.154;8.254;2023-03-11T04:04:53;1.10;99.90
4934;DHT22;2482;49.154;8.254;2023-03-11T04:07:20;1.10;99.90
4934;DHT22;2482;49.154;8.254;2023-03-11T04:09:46;1.00;99.90
4934;DHT22;2482;49.154;8.254;2023-03-11T04:12:15;1.20;99.90
4934;DHT22;2482;49.154;8.254;2023-03-11T04:14:45;1.10;99.90
4934;DHT22;2482;49.154;8.254;2023-03-11T04:17:13;1.10;99.90
4934;DHT22;2482;49.154;8.254;2023-03-11T04:19:40;1.10;99.90
4934;DHT22;2482;49.154;8.254;2023-03-11T04:22:07;1.10;99.90
4934;DHT22;2482;49.154;8.254;2023-03-11T04:24:35;1.10;99.90
4934;DHT22;2482;49.154;8.254;2023-03-11T04:27:02;1.10;99.90
4934;DHT22;2482;49.154;8.254;2023-03-11T04:29:29;1.00;99.90
4934;DHT22;2482;49.154;8.254;2023-03-11T04:31:56;1.00;99.90
4934;DHT22;2482;49.154;8.254;2023-03-11T04:34:23;1.00;99.90
4934;DHT22;2482;49.154;8.254;2023-03-11T04:36:52;1.10;99.90
4934;DHT22;2482;49.154;8.254;2023-03-11T04:39:19;1.10;99.90
4934;DHT22;2482;49.154;8.254;2023-03-11T04:41:46;1.00;99.90
4934;DHT22;2482;49.154;8.254;2023-03-11T04:44:14;1.00;99.90
4934;DHT22;2482;49.154;8.254;2023-03-11T04:46:41;0.90;99.90
4934;DHT22;2482;49.154;8.254;2023-03-11T04:49:08;0.90;99.90
4934;DHT22;2482;49.154;8.254;2023-03-11T04:51:36;0.90;99.90
4934;DHT22;2482;49.154;8.254;2023-03-11T04:54:04;0.90;99.90
4934;DHT22;2482;49.154;8.254;2023-03-11T04:56:31;0.80;99.90
4934;DHT22;2482;49.154;8.254;2023-03-11T04:58:58;0.80;99.90
4934;DHT22;2482;49.154;8.254;2023-03-11T05:01:26;0.90;99.90
4934;DHT22;2482;49.154;8.254;2023-03-11T05:03:53;0.90;99.90
4934;DHT22;2482;49.154;8.254;2023-03-11T05:06:20;0.90;99.90
4934;DHT22;2482;49.154;8.254;2023-03-11T05:08:47;0.90;99.90
4934;DHT22;2482;49.154;8.254;2023-03-11T05:11:14;0.80;99.90
4934;DHT22;2482;49.154;8.254;2023-03-11T05:13:40;0.90;99.90
4934;DHT22;2482;49.154;8.254;2023-03-11T05:16:09;1.00;99.90
4934;DHT22;2482;49.154;8.254;2023-03-11T05:18:36;0.90;99.90
4934;DHT22;2482;49.154;8.254;2023-03-11T05:21:03;0.70;99.90
4934;DHT22;2482;49.154;8.254;2023-03-11T05:23:30;0.90;99.90
4934;DHT22;2482;49.154;8.254;2023-03-11T05:25:57;0.90;99.90
4934;DHT22;2482;49.154;8.254;2023-03-11T05:28:24;0.80;99.90
4934;DHT22;2482;49.154;8.254;2023-03-11T05:30:51;0.90;99.90
4934;DHT22;2482;49.154;8.254;2023-03-11T05:33:18;0.90;99.90
4934;DHT22;2482;49.154;8.254;2023-03-11T05:35:45;0.80;99.90
4934;DHT22;2482;49.154;8.254;2023-03-11T05:38:12;0.80;99.90
4934;DHT22;2482;49.154;8.254;2023-03-11T05:40:40;0.80;99.90
4934;DHT22;2482;49.154;8.254;2023-03-11T05:43:07;0.80;99.90
4934;DHT22;2482;49.154;8.254;2023-03-11T05:45:34;0.70;99.90
4934;DHT22;2482;49.154;8.254;2023-03-11T05:48:00;0.70;99.90
4934;DHT22;2482;49.154;8.254;2023-03-11T05:50:27;0.70;99.90
4934;DHT22;2482;49.154;8.254;2023-03-11T05:52:54;0.70;99.90
4934;DHT22;2482;49.154;8.254;2023-03-11T05:55:21;0.60;99.90
4934;DHT22;2482;49.154;8.254;2023-03-11T05:57:50;0.60;99.90
4934;DHT22;2482;49.154;8.254;2023-03-11T06:00:18;0.60;99.90
4934;DHT22;2482;49.154;8.254;2023-03-11T06:02:46;0.60;99.90
4934;DHT22;2482;49.154;8.254;2023-03-11T06:05:13;0.50;99.90
4934;DHT22;2482;49.154;8.254;2023-03-11T06:07:40;0.80;99.90
4934;DHT22;2482;49.154;8.254;2023-03-11T06:10:07;0.90;99.90
4934;DHT22;2482;49.154;8.254;2023-03-11T06:12:35;0.80;99.90
4934;DHT22;2482;49.154;8.254;2023-03-11T06:15:05;0.80;99.90
4934;DHT22;2482;49.154;8.254;2023-03-11T06:17:33;0.70;99.90
4934;DHT22;2482;49.154;8.254;2023-03-11T06:20:00;0.90;99.90
4934;DHT22;2482;49.154;8.254;2023-03-11T06:22:26;0.80;99.90
4934;DHT22;2482;49.154;8.254;2023-03-11T06:24:53;0.90;99.90
4934;DHT22;2482;49.154;8.254;2023-03-11T06:27:20;0.90;99.90
4934;DHT22;2482;49.154;8.254;2023-03-11T06:29:51;0.90;99.90
4934;DHT22;2482;49.154;8.254;2023-03-11T06:32:19;0.90;99.90
4934;DHT22;2482;49.154;8.254;2023-03-11T06:34:50;1.00;99.90
4934;DHT22;2482;49.154;8.254;2023-03-11T06:37:18;1.00;99.90
4934;DHT22;2482;49.154;8.254;2023-03-11T06:39:46;1.10;99.90
4934;DHT22;2482;49.154;8.254;2023-03-11T06:42:13;1.10;99.90
4934;DHT22;2482;49.154;8.254;2023-03-11T06:44:40;1.20;99.90
4934;DHT22;2482;49.154;8.254;2023-03-11T06:47:07;1.20;99.90
4934;DHT22;2482;49.154;8.254;2023-03-11T06:49:34;1.10;99.90
4934;DHT22;2482;49.154;8.254;2023-03-11T06:52:02;1.30;99.90
4934;DHT22;2482;49.154;8.254;2023-03-11T06:54:29;1.30;99.90
4934;DHT22;2482;49.154;8.254;2023-03-11T06:56:56;1.30;99.90
4934;DHT22;2482;49.154;8.254;2023-03-11T06:59:23;1.30;99.90
4934;DHT22;2482;49.154;8.254;2023-03-11T07:01:50;1.30;99.90
4934;DHT22;2482;49.154;8.254;2023-03-11T07:04:17;1.20;99.90
4934;DHT22;2482;49.154;8.254;2023-03-11T07:06:44;1.20;99.90
4934;DHT22;2482;49.154;8.254;2023-03-11T07:09:11;1.30;99.90
4934;DHT22;2482;49.154;8.254;2023-03-11T07:11:38;1.30;99.90
4934;DHT22;2482;49.154;8.254;2023-03-11T07:14:05;1.50;99.90
4934;DHT22;2482;49.154;8.254;2023-03-11T07:16:32;1.60;99.90
4934;DHT22;2482;49.154;8.254;2023-03-11T07:19:00;1.70;99.90
4934;DHT22;2482;49.154;8.254;2023-03-11T07:21:30;1.80;99.90
4934;DHT22;2482;49.154;8.254;2023-03-11T07:24:00;2.00;99.90
4934;DHT22;2482;49.154;8.254;2023-03-11T07:26:29;2.00;99.90
4934;DHT22;2482;49.154;8.254;2023-03-11T07:28:57;2.00;99.90
4934;DHT22;2482;49.154;8.254;2023-03-11T07:31:29;2.00;99.90
4934;DHT22;2482;49.154;8.254;2023-03-11T07:34:00;2.20;99.90
4934;DHT22;2482;49.154;8.254;2023-03-11T07:36:29;2.20;99.90
4934;DHT22;2482;49.154;8.254;2023-03-11T07:39:02;2.30;99.90
4934;DHT22;2482;49.154;8.254;2023-03-11T07:41:32;2.40;99.90
4934;DHT22;2482;49.154;8.254;2023-03-11T07:44:01;2.40;99.90
4934;DHT22;2482;49.154;8.254;2023-03-11T07:46:29;2.40;99.90
4934;DHT22;2482;49.154;8.254;2023-03-11T07:48:57;2.40;99.90
4934;DHT22;2482;49.154;8.254;2023-03-11T07:51:26;2.50;99.90
4934;DHT22;2482;49.154;8.254;2023-03-11T07:53:56;2.50;99.90
4934;DHT22;2482;49.154;8.254;2023-03-11T07:56:26;2.60;99.90
4934;DHT22;2482;49.154;8.254;2023-03-11T07:58:56;2.60;99.90
4934;DHT22;2482;49.154;8.254;2023-03-11T08:01:26;2.80;99.90
4934;DHT22;2482;49.154;8.254;2023-03-11T08:03:56;2.90;99.90
4934;DHT22;2482;49.154;8.254;2023-03-11T08:06:29;2.90;99.90
4934;DHT22;2482;49.154;8.254;2023-03-11T08:08:59;3.00;99.90
4934;DHT22;2482;49.154;8.254;2023-03-11T08:11:29;3.10;99.90
4934;DHT22;2482;49.154;8.254;2023-03-11T08:13:56;3.10;99.90
4934;DHT22;2482;49.154;8.254;2023-03-11T08:16:24;3.10;99.90
4934;DHT22;2482;49.154;8.254;2023-03-11T08:18:52;3.20;99.90
4934;DHT22;2482;49.154;8.254;2023-03-11T08:21:24;3.40;99.90
4934;DHT22;2482;49.154;8.254;2023-03-11T08:23:56;3.40;99.90
4934;DHT22;2482;49.154;8.254;2023-03-11T08:26:24;3.40;99.90
4934;DHT22;2482;49.154;8.254;2023-03-11T08:28:52;3.30;99.90
4934;DHT22;2482;49.154;8.254;2023-03-11T08:31:25;3.30;99.90
4934;DHT22;2482;49.154;8.254;2023-03-11T08:33:58;3.50;99.90
4934;DHT22;2482;49.154;8.254;2023-03-11T08:36:30;3.50;99.90
4934;DHT22;2482;49.154;8.254;2023-03-11T08:38:58;3.50;99.90
4934;DHT22;2482;49.154;8.254;2023-03-11T08:41:26;3.60;99.90
4934;DHT22;2482;49.154;8.254;2023-03-11T08:43:54;3.80;99.90
4934;DHT22;2482;49.154;8.254;2023-03-11T08:49:00;4.00;99.90
4934;DHT22;2482;49.154;8.254;2023-03-11T08:51:29;4.00;99.90
4934;DHT22;2482;49.154;8.254;2023-03-11T08:53:59;3.70;99.90
4934;DHT22;2482;49.154;8.254;2023-03-11T08:56:26;3.90;99.90
4934;DHT22;2482;49.154;8.254;2023-03-11T08:58:53;3.90;99.90
4934;DHT22;2482;49.154;8.254;2023-03-11T09:01:21;3.60;99.90
4934;DHT22;2482;49.154;8.254;2023-03-11T09:03:49;3.80;99.90
4934;DHT22;2482;49.154;8.254;2023-03-11T09:06:16;3.90;99.90
4934;DHT22;2482;49.154;8.254;2023-03-11T09:08:45;4.10;99.90
4934;DHT22;2482;49.154;8.254;2023-03-11T09:11:14;4.20;99.90
4934;DHT22;2482;49.154;8.254;2023-03-11T09:13:42;4.30;99.90
4934;DHT22;2482;49.154;8.254;2023-03-11T09:16:14;4.50;99.90
4934;DHT22;2482;49.154;8.254;2023-03-11T09:18:42;4.60;99.90
4934;DHT22;2482;49.154;8.254;2023-03-11T09:21:11;4.80;99.90
4934;DHT22;2482;49.154;8.254;2023-03-11T09:23:39;4.60;99.90
4934;DHT22;2482;49.154;8.254;2023-03-11T09:26:10;4.50;99.90
4934;DHT22;2482;49.154;8.254;2023-03-11T09:28:38;4.20;99.90
4934;DHT22;2482;49.154;8.254;2023-03-11T09:31:05;4.60;99.90
4934;DHT22;2482;49.154;8.254;2023-03-11T09:33:39;5.00;99.90
4934;DHT22;2482;49.154;8.254;2023-03-11T09:36:15;4.40;99.90
4934;DHT22;2482;49.154;8.254;2023-03-11T09:38:44;4.30;99.90
4934;DHT22;2482;49.154;8.254;2023-03-11T09:41:19;4.10;99.90
4934;DHT22;2482;49.154;8.254;2023-03-11T09:44:39;4.40;99.90
4934;DHT22;2482;49.154;8.254;2023-03-11T09:52:52;4.90;99.90
4934;DHT22;2482;49.154;8.254;2023-03-11T10:00:37;5.50;99.90
4934;DHT22;2482;49.154;8.254;2023-03-11T10:03:13;5.70;99.90
4934;DHT22;2482;49.154;8.254;2023-03-11T10:05:48;5.90;99.90
4934;DHT22;2482;49.154;8.254;2023-03-11T10:08:39;5.80;99.90
4934;DHT22;2482;49.154;8.254;2023-03-11T10:20:13;6.60;99.90
4934;DHT22;2482;49.154;8.254;2023-03-11T10:22:58;6.90;99.90
4934;DHT22;2482;49.154;8.254;2023-03-11T10:28:55;7.00;99.90
4934;DHT22;2482;49.154;8.254;2023-03-11T10:31:53;6.60;99.90
4934;DHT22;2482;49.154;8.254;2023-03-11T10:37:13;6.30;99.90
4934;DHT22;2482;49.154;8.254;2023-03-11T10:39:46;6.70;99.90
4934;DHT22;2482;49.154;8.254;2023-03-11T10:42:22;6.80;99.90
4934;DHT22;2482;49.154;8.254;2023-03-11T10:44:51;6.60;99.90
4934;DHT22;2482;49.154;8.254;2023-03-11T10:47:20;6.40;99.90
4934;DHT22;2482;49.154;8.254;2023-03-11T10:49:49;6.10;99.90
4934;DHT22;2482;49.154;8.254;2023-03-11T10:52:16;5.80;99.90
4934;DHT22;2482;49.154;8.254;2023-03-11T10:54:48;5.70;99.90
4934;DHT22;2482;49.154;8.254;2023-03-11T10:57:31;5.60;99.90
4934;DHT22;2482;49.154;8.254;2023-03-11T11:00:01;5.80;99.90
4934;DHT22;2482;49.154;8.254;2023-03-11T11:02:39;6.20;99.90
4934;DHT22;2482;49.154;8.254;2023-03-11T11:07:51;7.40;99.90
4934;DHT22;2482;49.154;8.254;2023-03-11T11:10:34;7.50;99.90
4934;DHT22;2482;49.154;8.254;2023-03-11T11:13:32;8.00;99.90
4934;DHT22;2482;49.154;8.254;2023-03-11T11:16:17;8.10;99.50
4934;DHT22;2482;49.154;8.254;2023-03-11T11:21:46;7.90;99.40
4934;DHT22;2482;49.154;8.254;2023-03-11T11:24:24;8.10;99.90
4934;DHT22;2482;49.154;8.254;2023-03-11T11:30:22;7.50;98.20
4934;DHT22;2482;49.154;8.254;2023-03-11T11:32:49;7.20;99.20
4934;DHT22;2482;49.154;8.254;2023-03-11T11:35:21;7.20;99.90
4934;DHT22;2482;49.154;8.254;2023-03-11T11:38:00;7.10;99.90
4934;DHT22;2482;49.154;8.254;2023-03-11T11:40:32;7.30;99.90
4934;DHT22;2482;49.154;8.254;2023-03-11T11:43:09;7.40;99.90
4934;DHT22;2482;49.154;8.254;2023-03-11T11:45:48;7.40;99.90
4934;DHT22;2482;49.154;8.254;2023-03-11T11:48:43;7.40;98.60
4934;DHT22;2482;49.154;8.254;2023-03-11T11:51:29;7.30;99.90
4934;DHT22;2482;49.154;8.254;2023-03-11T11:54:27;7.10;99.20
4934;DHT22;2482;49.154;8.254;2023-03-11T11:56:57;7.00;98.50
4934;DHT22;2482;49.154;8.254;2023-03-11T11:59:26;6.50;98.30
4934;DHT22;2482;49.154;8.254;2023-03-11T12:02:36;6.10;99.60
4934;DHT22;2482;49.154;8.254;2023-03-11T12:05:30;5.60;99.90
4934;DHT22;2482;49.154;8.254;2023-03-11T12:08:20;5.40;99.90
4934;DHT22;2482;49.154;8.254;2023-03-11T12:11:19;5.40;97.70
4934;DHT22;2482;49.154;8.254;2023-03-11T12:19:48;6.40;99.90
4934;DHT22;2482;49.154;8.254;2023-03-11T12:31:09;5.90;99.90
4934;DHT22;2482;49.154;8.254;2023-03-11T12:34:00;6.20;99.70
4934;DHT22;2482;49.154;8.254;2023-03-11T12:36:34;6.30;99.90
4934;DHT22;2482;49.154;8.254;2023-03-11T12:39:05;6.30;99.60
4934;DHT22;2482;49.154;8.254;2023-03-11T12:41:39;6.50;99.90
4934;DHT22;2482;49.154;8.254;2023-03-11T12:44:26;6.90;98.50
4934;DHT22;2482;49.154;8.254;2023-03-11T12:47:00;7.20;98.90
4934;DHT22;2482;49.154;8.254;2023-03-11T12:49:35;7.20;98.50
4934;DHT22;2482;49.154;8.254;2023-03-11T12:54:41;6.80;99.90
4934;DHT22;2482;49.154;8.254;2023-03-11T13:08:23;6.10;99.90
4934;DHT22;2482;49.154;8.254;2023-03-11T13:10:53;6.10;97.90
4934;DHT22;2482;49.154;8.254;2023-03-11T13:15:51;6.40;99.90
4934;DHT22;2482;49.154;8.254;2023-03-11T13:18:22;6.50;98.40
4934;DHT22;2482;49.154;8.254;2023-03-11T13:23:29;6.40;97.70
4934;DHT22;2482;49.154;8.254;2023-03-11T13:29:14;6.90;96.70
4934;DHT22;2482;49.154;8.254;2023-03-11T13:37:43;7.60;98.10
4934;DHT22;2482;49.154;8.254;2023-03-11T13:40:39;8.00;98.60
4934;DHT22;2482;49.154;8.254;2023-03-11T13:43:21;8.40;98.70
4934;DHT22;2482;49.154;8.254;2023-03-11T13:46:05;8.70;96.20
4934;DHT22;2482;49.154;8.254;2023-03-11T13:48:43;8.60;95.00
4934;DHT22;2482;49.154;8.254;2023-03-11T13:51:21;8.80;95.50
4934;DHT22;2482;49.154;8.254;2023-03-11T13:53:55;8.70;94.60
4934;DHT22;2482;49.154;8.254;2023-03-11T13:56:31;8.70;93.20
4934;DHT22;2482;49.154;8.254;2023-03-11T13:59:28;8.90;92.40
4934;DHT22;2482;49.154;8.254;2023-03-11T14:04:35;8.20;93.30
4934;DHT22;2482;49.154;8.254;2023-03-11T14:07:17;8.00;93.50
4934;DHT22;2482;49.154;8.254;2023-03-11T14:09:48;7.90;95.40
4934;DHT22;2482;49.154;8.254;2023-03-11T14:12:15;8.10;97.10
4934;DHT22;2482;49.154;8.254;2023-03-11T14:14:57;8.10;94.50
4934;DHT22;2482;49.154;8.254;2023-03-11T14:17:26;7.80;96.20
4934;DHT22;2482;49.154;8.254;2023-03-11T14:22:45;7.90;98.10
4934;DHT22;2482;49.154;8.254;2023-03-11T14:25:21;7.80;94.80
4934;DHT22;2482;49.154;8.254;2023-03-11T14:27:59;8.00;94.00
4934;DHT22;2482;49.154;8.254;2023-03-11T14:30:32;8.20;94.80
4934;DHT22;2482;49.154;8.254;2023-03-11T14:33:19;8.10;96.00
4934;DHT22;2482;49.154;8.254;2023-03-11T14:36:13;7.90;94.50
4934;DHT22;2482;49.154;8.254;2023-03-11T14:38:42;7.80;95.80
4934;DHT22;2482;49.154;8.254;2023-03-11T14:41:12;7.80;96.30
4934;DHT22;2482;49.154;8.254;2023-03-11T14:43:43;7.80;95.00
4934;DHT22;2482;49.154;8.254;2023-03-11T14:46:19;7.70;95.80
4934;DHT22;2482;49.154;8.254;2023-03-11T14:48:49;7.40;96.90
4934;DHT22;2482;49.154;8.254;2023-03-11T14:51:24;7.40;97.10
4934;DHT22;2482;49.154;8.254;2023-03-11T14:54:15;7.30;97.80
4934;DHT22;2482;49.154;8.254;2023-03-11T14:56:48;7.10;97.90
4934;DHT22;2482;49.154;8.254;2023-03-11T14:59:28;7.10;95.40
4934;DHT22;2482;49.154;8.254;2023-03-11T15:04:57;7.20;95.10
4934;DHT22;2482;49.154;8.254;2023-03-11T15:07:26;7.20;99.60
4934;DHT22;2482;49.154;8.254;2023-03-11T15:09:53;7.00;98.80
4934;DHT22;2482;49.154;8.254;2023-03-11T15:12:33;7.00;97.70
4934;DHT22;2482;49.154;8.254;2023-03-11T15:15:23;6.90;98.00
4934;DHT22;2482;49.154;8.254;2023-03-11T15:17:57;6.80;96.80
4934;DHT22;2482;49.154;8.254;2023-03-11T15:20:35;6.80;96.20
4934;DHT22;2482;49.154;8.254;2023-03-11T15:23:05;6.70;95.80
4934;DHT22;2482;49.154;8.254;2023-03-11T15:25:36;6.70;96.80
4934;DHT22;2482;49.154;8.254;2023-03-11T15:28:22;6.80;97.10
4934;DHT22;2482;49.154;8.254;2023-03-11T15:33:47;6.80;97.30
4934;DHT22;2482;49.154;8.254;2023-03-11T15:36:39;6.90;96.30
4934;DHT22;2482;49.154;8.254;2023-03-11T15:41:58;6.70;97.60
4934;DHT22;2482;49.154;8.254;2023-03-11T15:44:32;6.70;98.00
4934;DHT22;2482;49.154;8.254;2023-03-11T15:47:23;6.60;96.30
4934;DHT22;2482;49.154;8.254;2023-03-11T15:49:50;6.70;98.80
4934;DHT22;2482;49.154;8.254;2023-03-11T15:52:17;6.70;97.40
4934;DHT22;2482;49.154;8.254;2023-03-11T15:54:45;6.60;96.40
4934;DHT22;2482;49.154;8.254;2023-03-11T15:57:25;6.60;96.90
4934;DHT22;2482;49.154;8.254;2023-03-11T15:59:54;6.60;98.70
4934;DHT22;2482;49.154;8.254;2023-03-11T16:02:28;6.60;99.90
4934;DHT22;2482;49.154;8.254;2023-03-11T16:04:57;6.30;99.90
4934;DHT22;2482;49.154;8.254;2023-03-11T16:07:24;6.10;99.90
4934;DHT22;2482;49.154;8.254;2023-03-11T16:10:06;5.90;99.90
4934;DHT22;2482;49.154;8.254;2023-03-11T16:12:34;5.90;99.90
4934;DHT22;2482;49.154;8.254;2023-03-11T16:15:02;5.90;99.90
4934;DHT22;2482;49.154;8.254;2023-03-11T16:17:29;5.90;99.90
4934;DHT22;2482;49.154;8.254;2023-03-11T16:20:14;5.90;99.90
4934;DHT22;2482;49.154;8.254;2023-03-11T16:22:42;5.60;99.90
4934;DHT22;2482;49.154;8.254;2023-03-11T16:25:18;5.60;99.90
4934;DHT22;2482;49.154;8.254;2023-03-11T16:27:49;5.60;99.90
4934;DHT22;2482;49.154;8.254;2023-03-11T16:30:17;5.50;99.90
4934;DHT22;2482;49.154;8.254;2023-03-11T16:32:44;5.50;99.90
4934;DHT22;2482;49.154;8.254;2023-03-11T16:35:11;5.50;99.90
4934;DHT22;2482;49.154;8.254;2023-03-11T16:37:39;5.30;99.90
4934;DHT22;2482;49.154;8.254;2023-03-11T16:40:17;5.30;99.90
4934;DHT22;2482;49.154;8.254;2023-03-11T16:43:04;5.20;99.90
4934;DHT22;2482;49.154;8.254;2023-03-11T16:45:33;5.10;99.90
4934;DHT22;2482;49.154;8.254;2023-03-11T16:48:00;4.90;99.90
4934;DHT22;2482;49.154;8.254;2023-03-11T16:50:28;4.80;99.90
4934;DHT22;2482;49.154;8.254;2023-03-11T16:52:55;4.50;99.90
4934;DHT22;2482;49.154;8.254;2023-03-11T16:55:24;4.50;99.90
4934;DHT22;2482;49.154;8.254;2023-03-11T16:57:52;4.40;99.90
4934;DHT22;2482;49.154;8.254;2023-03-11T17:00:20;4.50;99.90
4934;DHT22;2482;49.154;8.254;2023-03-11T17:02:47;4.40;99.90
4934;DHT22;2482;49.154;8.254;2023-03-11T17:05:14;4.40;99.90
4934;DHT22;2482;49.154;8.254;2023-03-11T17:07:42;4.40;99.90
4934;DHT22;2482;49.154;8.254;2023-03-11T17:10:10;4.40;99.90
4934;DHT22;2482;49.154;8.254;2023-03-11T17:12:37;4.20;99.90
4934;DHT22;2482;49.154;8.254;2023-03-11T17:15:05;4.00;99.90
4934;DHT22;2482;49.154;8.254;2023-03-11T17:17:33;3.90;99.90
4934;DHT22;2482;49.154;8.254;2023-03-11T17:20:00;3.90;99.90
4934;DHT22;2482;49.154;8.254;2023-03-11T17:22:27;3.80;99.90
4934;DHT22;2482;49.154;8.254;2023-03-11T17:24:54;3.70;99.90
4934;DHT22;2482;49.154;8.254;2023-03-11T17:27:21;3.50;99.90
4934;DHT22;2482;49.154;8.254;2023-03-11T17:29:48;3.70;99.90
4934;DHT22;2482;49.154;8.254;2023-03-11T17:32:15;3.60;99.90
4934;DHT22;2482;49.154;8.254;2023-03-11T17:34:43;3.50;99.90
4934;DHT22;2482;49.154;8.254;2023-03-11T17:37:10;3.40;99.90
4934;DHT22;2482;49.154;8.254;2023-03-11T17:39:37;3.40;99.90
4934;DHT22;2482;49.154;8.254;2023-03-11T17:42:04;3.30;99.90
4934;DHT22;2482;49.154;8.254;2023-03-11T17:44:31;3.20;99.90
4934;DHT22;2482;49.154;8.254;2023-03-11T17:47:15;3.30;99.90
4934;DHT22;2482;49.154;8.254;2023-03-11T17:49:45;3.20;99.90
4934;DHT22;2482;49.154;8.254;2023-03-11T17:52:13;3.00;99.90
4934;DHT22;2482;49.154;8.254;2023-03-11T17:54:40;3.00;99.90
4934;DHT22;2482;49.154;8.254;2023-03-11T17:57:07;2.90;99.90
4934;DHT22;2482;49.154;8.254;2023-03-11T17:59:34;2.80;99.90
4934;DHT22;2482;49.154;8.254;2023-03-11T18:02:01;2.70;99.90
4934;DHT22;2482;49.154;8.254;2023-03-11T18:04:29;2.80;99.90
4934;DHT22;2482;49.154;8.254;2023-03-11T18:06:56;2.70;99.90
4934;DHT22;2482;49.154;8.254;2023-03-11T18:09:22;2.90;99.90
4934;DHT22;2482;49.154;8.254;2023-03-11T18:11:49;2.80;99.90
4934;DHT22;2482;49.154;8.254;2023-03-11T18:14:16;2.80;99.90
4934;DHT22;2482;49.154;8.254;2023-03-11T18:16:43;2.90;99.90
4934;DHT22;2482;49.154;8.254;2023-03-11T18:19:10;2.70;99.90
4934;DHT22;2482;49.154;8.254;2023-03-11T18:21:37;2.70;99.90